createdAt,value
2018-02-19T00:00:33.889Z,24.00
2018-02-19T00:02:59.921Z,24.10
2018-02-19T00:05:26.866Z,23.40
2018-02-19T00:07:53.038Z,23.33
2018-02-19T00:10:19.141Z,23.38
2018-02-19T00:12:45.396Z,24.98
2018-02-19T00:15:11.653Z,24.20
2018-02-19T00:17:37.722Z,24.30
2018-02-19T00:20:04.680Z,23.83
2018-02-19T00:22:31.597Z,25.65
2018-02-19T00:24:59.711Z,25.55
2018-02-19T00:27:26.136Z,24.12
2018-02-19T00:29:53.086Z,24.85
2018-02-19T00:32:21.878Z,26.35
2018-02-19T00:34:48.743Z,25.62
2018-02-19T00:37:15.931Z,24.00
2018-02-19T00:39:42.091Z,26.33
2018-02-19T00:42:08.172Z,23.65
2018-02-19T00:44:34.312Z,25.75
2018-02-19T00:47:00.603Z,26.25
2018-02-19T00:49:27.509Z,26.17
2018-02-19T00:51:53.663Z,24.20
2018-02-19T00:54:19.796Z,24.92
2018-02-19T00:56:45.960Z,23.92
2018-02-19T00:59:12.237Z,26.65
2018-02-19T01:01:38.321Z,23.95
2018-02-19T01:04:04.875Z,25.12
2018-02-19T01:06:32.054Z,22.50
2018-02-19T01:08:58.408Z,25.60
2018-02-19T01:11:24.530Z,25.05
2018-02-19T01:13:52.040Z,24.10
2018-02-19T01:16:18.253Z,25.83
2018-02-19T01:18:44.348Z,24.45
2018-02-19T01:21:10.841Z,27.27
2018-02-19T01:23:37.704Z,26.70
2018-02-19T01:26:04.975Z,25.98
2018-02-19T01:28:31.242Z,24.85
2018-02-19T01:30:57.488Z,26.30
2018-02-19T01:33:23.692Z,28.27
2018-02-19T01:35:50.349Z,26.73
2018-02-19T01:38:16.378Z,27.95
2018-02-19T01:40:42.691Z,26.33
2018-02-19T01:43:09.422Z,28.15
2018-02-19T01:45:36.361Z,28.58
2018-02-19T01:48:03.421Z,29.98
2018-02-19T01:50:29.665Z,28.40
2018-02-19T01:52:55.787Z,26.92
2018-02-19T01:55:21.995Z,29.50
2018-02-19T01:57:48.130Z,28.42
2018-02-19T02:00:14.766Z,26.40
2018-02-19T02:02:40.923Z,27.85
2018-02-19T02:05:07.234Z,28.20
2018-02-19T02:07:33.550Z,27.90
2018-02-19T02:09:59.705Z,28.75
2018-02-19T02:12:25.888Z,26.35
2018-02-19T02:14:51.988Z,25.25
2018-02-19T02:17:18.458Z,28.83
2018-02-19T02:19:44.706Z,26.40
2018-02-19T02:22:11.255Z,28.00
2018-02-19T02:24:37.355Z,26.80
2018-02-19T02:27:04.235Z,30.35
2018-02-19T02:29:30.405Z,29.80
2018-02-19T02:31:57.404Z,28.52
2018-02-19T02:34:24.480Z,29.17
2018-02-19T02:36:50.703Z,29.17
2018-02-19T02:39:16.911Z,28.83
2018-02-19T02:41:43.076Z,28.10
2018-02-19T02:44:12.161Z,26.48
2018-02-19T02:46:38.255Z,29.20
2018-02-19T02:49:05.193Z,26.58
2018-02-19T02:51:31.452Z,27.92
2018-02-19T02:53:58.322Z,26.08
2018-02-19T02:56:25.137Z,27.75
2018-02-19T02:58:52.096Z,27.42
2018-02-19T03:01:18.386Z,27.48
2018-02-19T03:03:44.512Z,26.98
2018-02-19T03:06:10.637Z,27.33
2018-02-19T03:08:36.822Z,27.02
2018-02-19T03:11:02.983Z,27.48
2018-02-19T03:13:29.154Z,28.12
2018-02-19T03:15:55.326Z,27.90
2018-02-19T03:18:22.215Z,26.27
2018-02-19T03:20:48.452Z,26.58
2018-02-19T03:23:14.542Z,28.50
2018-02-19T03:25:40.801Z,26.42
2018-02-19T03:28:06.909Z,28.05
2018-02-19T03:30:33.000Z,26.50
2018-02-19T03:32:59.244Z,24.05
2018-02-19T03:35:25.489Z,27.10
2018-02-19T03:37:52.766Z,26.42
2018-02-19T03:40:19.794Z,27.50
2018-02-19T03:42:46.691Z,26.95
2018-02-19T03:45:13.895Z,24.95
2018-02-19T03:47:39.966Z,24.35
2018-02-19T03:50:06.359Z,26.52
2018-02-19T03:52:32.446Z,27.73
2018-02-19T03:55:00.286Z,27.27
2018-02-19T03:57:26.450Z,29.55
2018-02-19T03:59:52.570Z,27.17
2018-02-19T04:02:20.349Z,26.80
2018-02-19T04:04:46.472Z,26.58
2018-02-19T04:07:13.386Z,27.23
2018-02-19T04:09:39.511Z,25.62
2018-02-19T04:12:06.505Z,27.90
2018-02-19T04:14:32.944Z,27.85
2018-02-19T04:16:59.108Z,26.48
2018-02-19T04:19:26.138Z,27.15
2018-02-19T04:21:53.407Z,27.42
2018-02-19T04:24:19.539Z,28.73
2018-02-19T04:26:45.561Z,25.58
2018-02-19T04:29:11.682Z,27.60
2018-02-19T04:31:37.827Z,27.17
2018-02-19T04:34:03.903Z,27.00
2018-02-19T04:36:30.767Z,27.15
2018-02-19T04:38:56.939Z,25.83
2018-02-19T04:41:23.257Z,25.62
2018-02-19T04:43:49.371Z,27.10
2018-02-19T04:46:20.080Z,27.20
2018-02-19T04:48:46.419Z,26.33
2018-02-19T04:51:13.618Z,25.88
2018-02-19T04:53:39.748Z,37.67
2018-02-19T04:56:07.400Z,26.23
2018-02-19T04:58:34.549Z,26.20
2018-02-19T05:01:00.629Z,23.87
2018-02-19T05:03:26.860Z,25.90
2018-02-19T05:05:54.309Z,25.65
2018-02-19T05:08:20.391Z,24.60
2018-02-19T05:10:47.385Z,24.17
2018-02-19T05:13:13.884Z,26.83
2018-02-19T05:15:40.467Z,25.88
2018-02-19T05:18:06.634Z,25.62
2018-02-19T05:20:32.845Z,24.98
2018-02-19T05:23:00.039Z,26.35
2018-02-19T05:25:26.203Z,26.70
2018-02-19T05:27:52.364Z,24.75
2018-02-19T05:30:18.453Z,26.23
2018-02-19T05:32:46.315Z,24.80
2018-02-19T05:35:13.156Z,25.10
2018-02-19T05:37:40.040Z,26.23
2018-02-19T05:40:07.532Z,24.40
2018-02-19T05:42:34.106Z,25.30
2018-02-19T05:45:00.431Z,24.23
2018-02-19T05:47:27.628Z,27.73
2018-02-19T05:49:54.403Z,24.75
2018-02-19T05:52:20.442Z,25.00
2018-02-19T05:54:46.467Z,27.15
2018-02-19T05:57:12.817Z,26.05
2018-02-19T05:59:38.878Z,26.92
2018-02-19T06:02:06.704Z,27.50
2018-02-19T06:04:32.967Z,26.45
2018-02-19T06:06:59.621Z,26.92
2018-02-19T06:09:27.614Z,27.67
2018-02-19T06:11:54.511Z,26.73
2018-02-19T06:14:20.779Z,26.92
2018-02-19T06:16:47.785Z,26.60
2018-02-19T06:19:14.366Z,27.77
2018-02-19T06:21:40.410Z,27.08
2018-02-19T06:24:06.548Z,26.20
2018-02-19T06:26:34.376Z,27.40
2018-02-19T06:29:00.549Z,26.17
2018-02-19T06:31:26.971Z,26.37
2018-02-19T06:33:53.890Z,28.00
2018-02-19T06:36:20.174Z,25.62
2018-02-19T06:38:47.975Z,27.70
2018-02-19T06:41:14.636Z,28.55
2018-02-19T06:43:42.859Z,28.02
2018-02-19T06:46:09.786Z,26.45
2018-02-19T06:48:35.968Z,27.50
2018-02-19T06:51:02.156Z,28.87
2018-02-19T06:53:30.339Z,28.23
2018-02-19T06:55:57.342Z,29.35
2018-02-19T06:58:24.101Z,27.40
2018-02-19T07:00:51.762Z,26.73
2018-02-19T07:03:18.343Z,27.45
2018-02-19T07:05:44.570Z,27.37
2018-02-19T07:08:10.769Z,27.58
2018-02-19T07:10:37.075Z,27.55
2018-02-19T07:13:04.959Z,29.48
2018-02-19T07:15:32.036Z,27.05
2018-02-19T07:17:58.231Z,28.52
2018-02-19T07:20:25.482Z,29.92
2018-02-19T07:22:51.574Z,26.05
2018-02-19T07:25:17.723Z,27.23
2018-02-19T07:27:44.746Z,27.00
2018-02-19T07:30:10.943Z,28.33
2018-02-19T07:32:37.233Z,27.90
2018-02-19T07:35:03.902Z,30.55
2018-02-19T07:37:30.932Z,30.58
2018-02-19T07:39:57.150Z,29.98
2018-02-19T07:42:23.789Z,28.92
2018-02-19T07:44:49.919Z,30.05
2018-02-19T07:47:18.027Z,26.83
2018-02-19T07:49:44.714Z,29.73
2018-02-19T07:52:11.765Z,27.33
2018-02-19T07:54:38.014Z,30.80
2018-02-19T07:57:05.669Z,28.90
2018-02-19T07:59:32.412Z,27.60
2018-02-19T08:01:58.704Z,27.98
2018-02-19T08:04:27.390Z,27.85
2018-02-19T08:06:54.168Z,24.63
2018-02-19T08:09:20.582Z,26.08
2018-02-19T08:11:47.411Z,28.17
2018-02-19T08:14:13.649Z,27.15
2018-02-19T08:16:40.683Z,26.92
2018-02-19T08:19:06.794Z,27.48
2018-02-19T08:21:33.656Z,28.98
2018-02-19T08:23:59.936Z,28.85
2018-02-19T08:26:26.121Z,28.98
2018-02-19T08:28:52.347Z,26.92
2018-02-19T08:31:18.702Z,26.62
2018-02-19T08:33:44.858Z,30.58
2018-02-19T08:36:11.293Z,30.10
2018-02-19T08:38:37.498Z,27.60
2018-02-19T08:41:04.442Z,30.85
2018-02-19T08:43:30.681Z,27.50
2018-02-19T08:45:57.426Z,28.98
2018-02-19T08:48:23.685Z,28.30
2018-02-19T08:50:49.929Z,29.90
2018-02-19T08:53:17.499Z,27.75
2018-02-19T08:55:43.697Z,25.42
2018-02-19T08:58:10.341Z,28.27
2018-02-19T09:00:36.567Z,26.35
2018-02-19T09:03:02.861Z,25.70
2018-02-19T09:05:30.073Z,25.90
2018-02-19T09:07:57.504Z,23.25
2018-02-19T09:10:23.647Z,23.45
2018-02-19T09:12:50.278Z,24.85
2018-02-19T09:15:16.348Z,22.48
2018-02-19T09:17:42.507Z,23.92
2018-02-19T09:20:08.951Z,21.05
2018-02-19T09:22:35.072Z,24.17
2018-02-19T09:25:05.746Z,23.38
2018-02-19T09:27:32.002Z,22.85
2018-02-19T09:29:58.218Z,23.60
2018-02-19T09:32:24.384Z,21.83
2018-02-19T09:34:50.407Z,23.02
2018-02-19T09:37:16.490Z,20.80
2018-02-19T09:39:43.350Z,22.27
2018-02-19T09:42:09.879Z,21.50
2018-02-19T09:44:35.970Z,21.02
2018-02-19T09:47:02.200Z,21.40
2018-02-19T09:49:28.367Z,20.08
2018-02-19T09:51:55.656Z,21.40
2018-02-19T09:54:21.894Z,23.65
2018-02-19T09:56:48.017Z,23.40
2018-02-19T09:59:14.882Z,21.75
2018-02-19T10:01:40.977Z,21.48
2018-02-19T10:04:09.525Z,21.35
2018-02-19T10:06:35.573Z,20.17
2018-02-19T10:09:01.620Z,20.85
2018-02-19T10:11:27.800Z,22.85
2018-02-19T10:13:54.115Z,21.77
2018-02-19T10:16:20.646Z,22.65
2018-02-19T10:18:46.884Z,22.42
2018-02-19T10:21:13.126Z,21.67
2018-02-19T10:23:40.777Z,21.95
2018-02-19T10:26:08.255Z,20.65
2018-02-19T10:28:34.435Z,25.33
2018-02-19T10:31:01.431Z,22.42
2018-02-19T10:33:27.796Z,20.80
2018-02-19T10:35:54.112Z,22.10
2018-02-19T10:38:21.292Z,20.25
2018-02-19T10:40:47.419Z,21.10
2018-02-19T10:43:13.561Z,20.50
2018-02-19T10:45:39.715Z,20.02
2018-02-19T10:48:05.993Z,23.20
2018-02-19T10:50:32.269Z,20.17
2018-02-19T10:52:58.566Z,23.03
2018-02-19T10:55:25.617Z,20.17
2018-02-19T10:57:51.898Z,18.47
2018-02-19T11:00:24.364Z,19.50
2018-02-19T11:02:51.599Z,21.55
2018-02-19T11:05:18.033Z,21.30
2018-02-19T11:07:45.799Z,20.63
2018-02-19T11:10:12.046Z,19.92
2018-02-19T11:12:38.562Z,21.57
2018-02-19T11:15:05.019Z,25.80
2018-02-19T11:17:31.534Z,31.23
2018-02-19T11:20:01.358Z,22.77
2018-02-19T11:22:29.141Z,23.50
2018-02-19T11:24:56.559Z,21.30
2018-02-19T11:27:22.655Z,24.20
2018-02-19T11:29:48.836Z,23.10
2018-02-19T11:32:16.185Z,21.87
2018-02-19T11:34:43.186Z,23.90
2018-02-19T11:37:09.510Z,22.50
2018-02-19T11:39:35.893Z,19.60
2018-02-19T11:42:05.130Z,21.73
2018-02-19T11:44:33.449Z,20.47
2018-02-19T11:47:02.036Z,21.77
2018-02-19T11:49:28.222Z,21.30
2018-02-19T11:51:56.883Z,19.40
2018-02-19T11:54:24.005Z,19.47
2018-02-19T11:56:50.283Z,21.47
2018-02-19T11:59:17.959Z,19.23
2018-02-19T12:01:44.218Z,19.53
2018-02-19T12:04:11.469Z,19.27
2018-02-19T12:06:38.110Z,21.73
2018-02-19T12:09:04.714Z,19.50
2018-02-19T12:11:33.124Z,22.80
2018-02-19T12:14:00.392Z,25.70
2018-02-19T12:16:27.318Z,17.90
2018-02-19T12:18:53.394Z,21.00
2018-02-19T12:21:20.591Z,18.03
2018-02-19T12:23:47.515Z,20.27
2018-02-19T12:26:14.642Z,19.50
2018-02-19T12:28:40.821Z,18.93
2018-02-19T12:31:07.349Z,20.00
2018-02-19T12:33:33.455Z,19.30
2018-02-19T12:36:00.109Z,19.10
2018-02-19T12:38:26.237Z,18.73
2018-02-19T12:40:53.695Z,18.60
2018-02-19T12:43:19.830Z,19.90
2018-02-19T12:45:46.037Z,19.50
2018-02-19T12:48:12.276Z,18.37
2018-02-19T12:50:38.450Z,20.80
2018-02-19T12:53:05.115Z,22.37
2018-02-19T12:55:32.017Z,24.90
2018-02-19T12:57:58.286Z,21.43
2018-02-19T13:00:25.505Z,20.97
2018-02-19T13:02:52.508Z,19.63
2018-02-19T13:05:18.838Z,17.00
2018-02-19T13:07:46.370Z,17.43
2018-02-19T13:10:13.104Z,16.97
2018-02-19T13:12:41.159Z,19.00
2018-02-19T13:15:07.630Z,16.90
2018-02-19T13:17:33.893Z,17.07
2018-02-19T13:20:00.181Z,20.07
2018-02-19T13:22:26.750Z,19.33
2018-02-19T13:24:53.097Z,37.80
2018-02-19T13:27:19.372Z,19.63
2018-02-19T13:29:47.350Z,25.40
2018-02-19T13:32:14.444Z,19.70
2018-02-19T13:34:41.395Z,17.23
2018-02-19T13:37:09.100Z,19.87
2018-02-19T13:39:35.312Z,19.77
2018-02-19T13:42:02.535Z,16.63
2018-02-19T13:44:28.796Z,15.53
2018-02-19T13:46:57.789Z,14.77
2018-02-19T13:49:25.460Z,15.87
2018-02-19T13:51:51.932Z,14.80
2018-02-19T13:54:19.073Z,16.20
2018-02-19T13:56:46.401Z,15.67
2018-02-19T13:59:12.672Z,16.53
2018-02-19T14:01:39.508Z,17.20
2018-02-19T14:04:05.833Z,14.30
2018-02-19T14:06:32.110Z,15.97
2018-02-19T14:08:59.521Z,14.63
2018-02-19T14:11:25.612Z,15.10
2018-02-19T14:13:53.108Z,15.13
2018-02-19T14:16:19.739Z,14.80
2018-02-19T14:18:45.915Z,14.80
2018-02-19T14:21:13.826Z,15.43
2018-02-19T14:23:40.786Z,14.97
2018-02-19T14:26:07.471Z,13.53
2018-02-19T14:28:33.969Z,14.70
2018-02-19T14:31:01.214Z,16.57
2018-02-19T14:33:27.397Z,13.80
2018-02-19T14:35:53.647Z,14.60
2018-02-19T14:38:20.066Z,13.97
2018-02-19T14:40:47.939Z,15.00
2018-02-19T14:43:15.312Z,12.70
2018-02-19T14:45:43.123Z,16.27
2018-02-19T14:48:09.979Z,17.77
2018-02-19T14:50:36.215Z,16.40
2018-02-19T14:53:02.483Z,14.47
2018-02-19T14:55:29.721Z,14.00
2018-02-19T14:57:56.052Z,14.67
2018-02-19T15:00:23.534Z,15.50
2018-02-19T15:02:50.510Z,15.03
2018-02-19T15:05:17.020Z,14.93
2018-02-19T15:07:44.548Z,15.70
2018-02-19T15:10:10.999Z,17.10
2018-02-19T15:12:37.377Z,17.40
2018-02-19T15:15:03.948Z,18.07
2018-02-19T15:17:31.004Z,17.00
2018-02-19T15:19:58.023Z,19.73
2018-02-19T15:22:24.607Z,26.50
2018-02-19T15:24:50.960Z,27.60
2018-02-19T15:27:19.194Z,18.63
2018-02-19T15:29:46.420Z,17.10
2018-02-19T15:32:13.604Z,15.60
2018-02-19T15:34:39.770Z,15.93
2018-02-19T15:37:06.864Z,15.63
2018-02-19T15:39:33.037Z,15.00
2018-02-19T15:41:59.357Z,17.33
2018-02-19T15:44:26.138Z,13.80
2018-02-19T15:46:52.365Z,14.33
2018-02-19T15:49:18.527Z,16.20
2018-02-19T15:51:44.746Z,14.80
2018-02-19T15:54:11.854Z,16.00
2018-02-19T15:56:38.005Z,15.30
2018-02-19T15:59:07.233Z,16.40
2018-02-19T16:01:34.770Z,15.50
2018-02-19T16:04:01.155Z,18.00
2018-02-19T16:06:28.237Z,15.90
2018-02-19T16:08:54.559Z,16.43
2018-02-19T16:11:22.566Z,17.57
2018-02-19T16:13:48.841Z,15.73
2018-02-19T16:16:16.513Z,18.37
2018-02-19T16:18:43.585Z,16.43
2018-02-19T16:21:12.238Z,16.17
2018-02-19T16:23:38.866Z,16.30
2018-02-19T16:26:05.840Z,16.60
2018-02-19T16:28:33.707Z,18.40
2018-02-19T16:30:59.963Z,17.03
2018-02-19T16:33:26.382Z,17.23
2018-02-19T16:35:53.061Z,14.37
2018-02-19T16:38:20.167Z,15.80
2018-02-19T16:40:47.961Z,16.27
2018-02-19T16:43:14.590Z,15.93
2018-02-19T16:45:41.549Z,16.10
2018-02-19T16:48:08.900Z,16.70
2018-02-19T16:50:35.104Z,17.20
2018-02-19T16:53:01.358Z,15.10
2018-02-19T16:55:27.519Z,14.63
2018-02-19T16:57:54.813Z,15.07
2018-02-19T17:00:21.764Z,20.67
2018-02-19T17:02:48.191Z,21.13
2018-02-19T17:05:14.389Z,17.43
2018-02-19T17:07:41.549Z,17.90
2018-02-19T17:10:07.903Z,21.60
2018-02-19T17:12:34.077Z,18.03
2018-02-19T17:15:00.295Z,16.23
2018-02-19T17:17:26.524Z,15.50
2018-02-19T17:19:52.838Z,15.97
2018-02-19T17:22:19.525Z,16.63
2018-02-19T17:24:46.038Z,15.97
2018-02-19T17:27:14.036Z,16.43
2018-02-19T17:29:40.755Z,17.33
2018-02-19T17:32:08.440Z,17.17
2018-02-19T17:34:35.608Z,17.40
2018-02-19T17:37:02.995Z,15.50
2018-02-19T17:39:29.340Z,17.97
2018-02-19T17:41:55.838Z,18.20
2018-02-19T17:44:25.145Z,17.73
2018-02-19T17:46:51.510Z,17.70
2018-02-19T17:49:19.693Z,24.10
2018-02-19T17:51:46.010Z,22.63
2018-02-19T17:54:13.997Z,22.37
2018-02-19T17:56:40.166Z,21.17
2018-02-19T17:59:06.504Z,25.77
2018-02-19T18:01:32.944Z,23.00
2018-02-19T18:03:59.719Z,18.63
2018-02-19T18:06:25.835Z,19.40
2018-02-19T18:08:52.303Z,22.10
2018-02-19T18:13:54.057Z,22.00
2018-02-19T18:16:20.688Z,20.23
2018-02-19T18:18:48.559Z,20.48
2018-02-19T18:21:14.726Z,21.00
2018-02-19T18:23:41.064Z,21.75
2018-02-19T18:26:07.451Z,20.02
2018-02-19T18:28:34.497Z,19.83
2018-02-19T18:31:00.683Z,18.70
2018-02-19T18:33:27.378Z,24.00
2018-02-19T18:35:53.397Z,19.20
2018-02-19T18:38:19.487Z,18.62
2018-02-19T18:40:46.603Z,17.80
2018-02-19T18:43:13.239Z,17.90
2018-02-19T18:45:40.143Z,18.05
2018-02-19T18:48:06.411Z,17.90
2018-02-19T18:50:33.281Z,18.20
2018-02-19T18:53:00.320Z,19.17
2018-02-19T18:55:27.313Z,18.15
2018-02-19T18:57:53.974Z,17.33
2018-02-19T19:00:20.485Z,19.80
2018-02-19T19:02:47.547Z,19.05
2018-02-19T19:05:14.095Z,17.70
2018-02-19T19:07:52.762Z,18.23
2018-02-19T19:10:31.197Z,19.50
2018-02-19T19:12:58.040Z,17.92
2018-02-19T19:15:24.919Z,19.00
2018-02-19T19:17:51.831Z,19.05
2018-02-19T19:20:17.950Z,19.60
2018-02-19T19:22:45.833Z,18.17
2018-02-19T19:25:12.584Z,18.45
2018-02-19T19:27:40.236Z,18.12
2018-02-19T19:30:07.487Z,17.02
2018-02-19T19:32:35.197Z,18.20
2018-02-19T19:35:01.269Z,21.65
2018-02-19T19:37:28.763Z,18.52
2018-02-19T19:39:55.078Z,18.77
2018-02-19T19:42:21.334Z,22.10
2018-02-19T19:44:48.524Z,19.67
2018-02-19T19:47:15.183Z,18.33
2018-02-19T19:49:44.111Z,19.50
2018-02-19T19:52:10.943Z,17.80
2018-02-19T19:54:37.495Z,18.08
2018-02-19T19:57:03.931Z,18.65
2018-02-19T19:59:31.211Z,17.65
2018-02-19T20:01:58.681Z,18.45
2018-02-19T20:04:24.904Z,19.80
2018-02-19T20:06:51.084Z,20.12
2018-02-19T20:09:18.396Z,19.08
2018-02-19T20:11:45.462Z,18.12
2018-02-19T20:14:11.609Z,19.48
2018-02-19T20:16:38.601Z,18.60
2018-02-19T20:19:05.505Z,18.10
2018-02-19T20:21:32.004Z,19.85
2018-02-19T20:23:58.299Z,19.12
2018-02-19T20:26:25.069Z,18.60
2018-02-19T20:28:51.222Z,19.05
2018-02-19T20:31:18.012Z,19.55
2018-02-19T20:33:45.022Z,18.08
2018-02-19T20:36:11.464Z,22.20
2018-02-19T20:38:38.442Z,19.58
2018-02-19T20:41:06.442Z,19.87
2018-02-19T20:43:33.686Z,21.70
2018-02-19T20:45:59.973Z,18.12
2018-02-19T20:48:26.145Z,19.20
2018-02-19T20:50:52.250Z,21.27
2018-02-19T20:53:18.380Z,20.33
2018-02-19T20:55:45.290Z,19.12
2018-02-19T20:58:11.725Z,18.75
2018-02-19T21:00:39.063Z,19.23
2018-02-19T21:03:05.234Z,21.87
2018-02-19T21:05:31.911Z,20.85
2018-02-19T21:07:58.839Z,19.80
2018-02-19T21:10:26.575Z,17.83
2018-02-19T21:12:52.832Z,21.50
2018-02-19T21:15:19.299Z,26.00
2018-02-19T21:17:45.466Z,21.90
2018-02-19T21:20:13.040Z,23.80
2018-02-19T21:22:39.462Z,22.30
2018-02-19T21:25:06.058Z,23.38
2018-02-19T21:27:33.008Z,20.37
2018-02-19T21:30:00.464Z,19.50
2018-02-19T21:32:26.562Z,23.27
2018-02-19T21:34:52.803Z,24.67
2018-02-19T21:37:21.229Z,21.60
2018-02-19T21:39:47.394Z,19.35
2018-02-19T21:42:13.919Z,20.37
2018-02-19T21:44:40.063Z,19.20
2018-02-19T21:47:06.196Z,21.40
2018-02-19T21:49:32.437Z,21.58
2018-02-19T21:51:58.744Z,20.00
2018-02-19T21:54:25.267Z,20.15
2018-02-19T21:56:51.435Z,20.73
2018-02-19T21:59:17.640Z,23.00
2018-02-19T22:01:44.827Z,21.60
2018-02-19T22:04:11.325Z,21.15
2018-02-19T22:06:37.439Z,21.80
2018-02-19T22:09:03.632Z,20.75
2018-02-19T22:11:29.632Z,21.30
2018-02-19T22:13:56.516Z,19.60
2018-02-19T22:16:23.643Z,22.55
2018-02-19T22:18:51.225Z,21.83
2018-02-19T22:21:18.282Z,22.90
2018-02-19T22:23:45.407Z,21.62
2018-02-19T22:26:13.318Z,23.55
2018-02-19T22:28:39.952Z,20.60
2018-02-19T22:31:07.133Z,20.05
2018-02-19T22:33:34.495Z,20.88
2018-02-19T22:36:00.827Z,20.30
2018-02-19T22:38:27.045Z,19.73
2018-02-19T22:40:53.882Z,22.45
2018-02-19T22:43:20.290Z,21.27
2018-02-19T22:45:46.349Z,19.30
2018-02-19T22:48:12.463Z,22.17
2018-02-19T22:50:40.271Z,21.67
2018-02-19T22:53:06.445Z,22.10
2018-02-19T22:55:32.535Z,19.10
2018-02-19T22:57:59.340Z,23.45
2018-02-19T23:00:26.457Z,21.23
2018-02-19T23:02:53.771Z,22.98
2018-02-19T23:05:20.196Z,20.05
2018-02-19T23:07:47.183Z,22.48
2018-02-19T23:10:15.114Z,21.65
2018-02-19T23:12:41.403Z,21.10
2018-02-19T23:15:08.066Z,20.67
2018-02-19T23:17:34.668Z,23.67
2018-02-19T23:20:00.788Z,23.60
2018-02-19T23:22:26.815Z,22.37
2018-02-19T23:24:54.690Z,20.65
2018-02-19T23:27:21.897Z,20.00
2018-02-19T23:29:49.637Z,20.08
2018-02-19T23:32:15.843Z,20.85
2018-02-19T23:34:42.975Z,21.45
2018-02-19T23:37:09.113Z,21.05
2018-02-19T23:39:35.290Z,19.75
2018-02-19T23:42:01.415Z,21.92
2018-02-19T23:44:27.679Z,20.77
2018-02-19T23:46:53.935Z,21.58
2018-02-19T23:49:20.209Z,21.90
2018-02-19T23:51:46.323Z,21.27
2018-02-19T23:54:20.000Z,22.95
2018-02-19T23:56:46.238Z,22.90
2018-02-19T23:59:12.385Z,21.95
